Time;durP1;ratioP1;P1;durP2;ratioP2;P2;SDS_P1;SDS_P2;PMS_P1;PMS_P2;Temp;Humidity;BMP_temperature;BMP_pressure;BME280_temperature;BME280_humidity;BME280_pressure;Samples;Min_cycle;Max_cycle;Signal;HPM_P1;HPM_P2
2021/04/29 00:01:57;;;;;;;6.72;4.82;;;;;;;;;;5110952;28;20016;-64
2021/04/29 00:04:24;;;;;;;6.93;5.18;;;;;;;;;;5114262;28;20053;-71
2021/04/29 00:06:50;;;;;;;5.70;4.72;;;;;;;;;;5108047;28;20415;-65
2021/04/29 00:09:16;;;;;;;9.45;4.55;;;;;;;;;;5103171;28;20032;-66
2021/04/29 00:11:42;;;;;;;6.30;4.07;;;;;;;;;;5115939;28;20054;-66
2021/04/29 00:14:10;;;;;;;9.32;4.60;;;;;;;;;;5113849;28;20023;-67
2021/04/29 00:16:36;;;;;;;6.95;4.18;;;;;;;;;;5111089;28;20020;-64
2021/04/29 00:19:03;;;;;;;8.15;4.05;;;;;;;;;;5113882;28;20486;-64
2021/04/29 00:21:29;;;;;;;6.22;4.13;;;;;;;;;;5107531;28;20047;-65
2021/04/29 00:23:55;;;;;;;6.80;4.07;;;;;;;;;;5088238;28;20081;-70
2021/04/29 00:26:22;;;;;;;8.45;4.28;;;;;;;;;;5115189;28;20058;-70
2021/04/29 00:28:53;;;;;;;4.65;3.60;;;;;;;;;;5100958;28;20036;-68
2021/04/29 00:31:21;;;;;;;4.32;3.42;;;;;;;;;;5111755;28;20024;-65
2021/04/29 00:33:47;;;;;;;5.90;4.50;;;;;;;;;;5112865;28;20034;-64
2021/04/29 00:36:14;;;;;;;5.65;4.00;;;;;;;;;;5083386;28;20044;-70
2021/04/29 00:38:40;;;;;;;6.13;3.60;;;;;;;;;;5113904;28;20026;-65
2021/04/29 00:41:06;;;;;;;6.15;4.05;;;;;;;;;;5097741;28;20053;-70
2021/04/29 00:43:32;;;;;;;4.20;3.50;;;;;;;;;;5103578;28;20024;-70
2021/04/29 00:45:59;;;;;;;6.00;4.57;;;;;;;;;;5106641;28;20019;-70
2021/04/29 00:48:25;;;;;;;5.50;3.92;;;;;;;;;;5106370;28;20027;-70
2021/04/29 00:50:51;;;;;;;5.85;3.90;;;;;;;;;;5104450;28;20028;-71
2021/04/29 00:53:18;;;;;;;6.07;4.15;;;;;;;;;;5109475;28;20035;-70
2021/04/29 00:55:44;;;;;;;6.53;4.13;;;;;;;;;;5102643;28;20036;-70
2021/04/29 00:58:10;;;;;;;6.32;4.70;;;;;;;;;;5108114;28;20127;-70
2021/04/29 01:00:38;;;;;;;5.28;3.65;;;;;;;;;;5110572;28;20026;-71
2021/04/29 01:03:18;;;;;;;5.30;4.18;;;;;;;;;;5099655;28;20028;-68
2021/04/29 01:05:51;;;;;;;6.57;4.20;;;;;;;;;;5106795;28;20028;-69
2021/04/29 01:08:21;;;;;;;4.63;3.70;;;;;;;;;;5108925;28;20035;-71
2021/04/29 01:10:47;;;;;;;6.65;3.85;;;;;;;;;;5106229;28;20042;-71
2021/04/29 01:13:14;;;;;;;6.85;4.03;;;;;;;;;;5098406;28;20036;-70
2021/04/29 01:15:46;;;;;;;6.70;3.95;;;;;;;;;;5103406;28;20049;-68
2021/04/29 01:18:13;;;;;;;6.60;3.85;;;;;;;;;;5107949;28;20507;-68
2021/04/29 01:20:47;;;;;;;5.88;4.00;;;;;;;;;;5110071;28;20059;-66
2021/04/29 01:23:25;;;;;;;4.57;3.55;;;;;;;;;;5120028;28;20031;-68
2021/04/29 01:25:55;;;;;;;5.10;4.18;;;;;;;;;;5106530;28;20028;-71
2021/04/29 01:28:21;;;;;;;4.28;3.38;;;;;;;;;;5115282;28;20035;-70
2021/04/29 01:30:47;;;;;;;4.10;3.35;;;;;;;;;;5105242;28;20042;-70
2021/04/29 01:33:14;;;;;;;4.05;3.65;;;;;;;;;;5108757;28;20032;-69
2021/04/29 01:35:40;;;;;;;5.30;4.10;;;;;;;;;;5103367;28;20032;-69
2021/04/29 01:38:06;;;;;;;5.03;3.83;;;;;;;;;;5098190;28;20024;-68
2021/04/29 01:40:32;;;;;;;6.30;3.60;;;;;;;;;;5102048;28;20103;-69
2021/04/29 01:42:58;;;;;;;4.30;3.33;;;;;;;;;;5098327;28;20445;-70
2021/04/29 01:45:25;;;;;;;5.03;3.50;;;;;;;;;;5111668;28;20024;-70
2021/04/29 01:47:51;;;;;;;4.00;3.13;;;;;;;;;;5107220;28;20051;-70
2021/04/29 01:50:17;;;;;;;4.28;3.60;;;;;;;;;;5105573;28;20063;-67
2021/04/29 01:52:44;;;;;;;6.85;3.55;;;;;;;;;;5116268;28;20030;-65
2021/04/29 01:55:10;;;;;;;7.10;3.88;;;;;;;;;;5113160;28;20012;-68
2021/04/29 01:57:37;;;;;;;6.80;4.05;;;;;;;;;;5083485;28;20032;-71
2021/04/29 02:00:07;;;;;;;7.88;3.75;;;;;;;;;;5111912;28;20368;-69
2021/04/29 02:02:33;;;;;;;4.20;3.42;;;;;;;;;;5110547;28;20023;-68
2021/04/29 02:04:59;;;;;;;8.80;3.67;;;;;;;;;;5098428;28;20023;-69
2021/04/29 02:07:25;;;;;;;4.93;3.38;;;;;;;;;;5107079;28;20106;-70
2021/04/29 02:09:51;;;;;;;5.72;3.50;;;;;;;;;;5107181;28;20038;-67
2021/04/29 02:12:17;;;;;;;6.38;3.70;;;;;;;;;;5108192;28;20048;-67
2021/04/29 02:14:46;;;;;;;5.65;3.22;;;;;;;;;;5102570;28;20046;-70
2021/04/29 02:17:14;;;;;;;5.10;3.35;;;;;;;;;;5116154;28;20062;-68
2021/04/29 02:19:43;;;;;;;5.32;3.55;;;;;;;;;;5120598;28;20020;-70
2021/04/29 02:22:12;;;;;;;7.05;3.55;;;;;;;;;;5114391;28;20020;-68
2021/04/29 02:24:38;;;;;;;6.68;3.85;;;;;;;;;;5108333;28;20094;-66
2021/04/29 02:27:05;;;;;;;5.75;3.63;;;;;;;;;;5120403;28;20129;-66
2021/04/29 02:29:31;;;;;;;4.75;3.35;;;;;;;;;;5115118;28;20028;-70
2021/04/29 02:31:57;;;;;;;4.22;3.70;;;;;;;;;;5121086;28;20024;-69
2021/04/29 02:34:24;;;;;;;5.57;3.72;;;;;;;;;;5122636;28;20058;-66
2021/04/29 02:36:50;;;;;;;5.70;3.72;;;;;;;;;;5111718;28;20015;-68
2021/04/29 02:39:16;;;;;;;6.60;3.83;;;;;;;;;;5110462;28;20385;-65
2021/04/29 02:41:42;;;;;;;7.20;3.65;;;;;;;;;;5119771;28;20031;-67
2021/04/29 02:44:09;;;;;;;6.60;3.95;;;;;;;;;;5118760;28;20023;-68
2021/04/29 02:46:35;;;;;;;4.50;3.33;;;;;;;;;;5110633;28;20149;-70
2021/04/29 02:49:02;;;;;;;7.82;4.30;;;;;;;;;;5109935;28;20403;-67
2021/04/29 02:51:29;;;;;;;9.32;3.65;;;;;;;;;;5110815;28;20088;-67
2021/04/29 02:53:55;;;;;;;6.95;3.78;;;;;;;;;;5103887;28;20024;-69
2021/04/29 02:56:21;;;;;;;8.32;4.70;;;;;;;;;;5111445;28;20035;-70
2021/04/29 02:58:48;;;;;;;4.55;3.47;;;;;;;;;;5109913;28;20493;-68
2021/04/29 03:01:15;;;;;;;4.63;3.55;;;;;;;;;;5113501;28;20099;-70
2021/04/29 03:03:41;;;;;;;7.20;4.00;;;;;;;;;;5114869;28;20417;-71
2021/04/29 03:06:08;;;;;;;6.45;4.03;;;;;;;;;;5115466;28;20624;-67
2021/04/29 03:08:34;;;;;;;6.88;4.32;;;;;;;;;;5103049;28;20028;-70
2021/04/29 03:11:01;;;;;;;5.35;3.83;;;;;;;;;;5097464;28;20085;-70
2021/04/29 03:13:27;;;;;;;6.10;4.00;;;;;;;;;;5096661;28;20047;-70
2021/04/29 03:15:53;;;;;;;4.50;3.35;;;;;;;;;;5106446;28;20035;-71
2021/04/29 03:18:19;;;;;;;5.18;3.92;;;;;;;;;;5103235;28;20024;-70
2021/04/29 03:20:45;;;;;;;5.72;4.22;;;;;;;;;;5112378;28;20031;-70
2021/04/29 03:23:11;;;;;;;6.30;3.88;;;;;;;;;;5105166;28;20360;-71
2021/04/29 03:25:37;;;;;;;7.50;5.78;;;;;;;;;;5113008;28;20065;-75
2021/04/29 03:28:04;;;;;;;8.18;4.45;;;;;;;;;;5100620;28;20027;-69
2021/04/29 03:30:31;;;;;;;5.78;4.45;;;;;;;;;;5115431;28;20026;-67
2021/04/29 03:32:57;;;;;;;5.97;4.35;;;;;;;;;;5112265;28;20039;-71
2021/04/29 03:35:23;;;;;;;6.78;3.85;;;;;;;;;;5086302;28;20043;-70
2021/04/29 03:37:49;;;;;;;5.63;4.15;;;;;;;;;;5106434;28;20053;-67
2021/04/29 03:40:15;;;;;;;7.43;4.13;;;;;;;;;;5104397;28;20038;-70
2021/04/29 03:42:41;;;;;;;6.35;4.20;;;;;;;;;;5121237;28;20382;-63
2021/04/29 03:45:08;;;;;;;9.10;4.93;;;;;;;;;;5109018;28;20083;-65
2021/04/29 03:47:34;;;;;;;10.00;4.78;;;;;;;;;;5105467;28;20016;-63
2021/04/29 03:50:00;;;;;;;6.22;4.95;;;;;;;;;;5120547;28;20049;-63
2021/04/29 03:52:26;;;;;;;7.10;5.05;;;;;;;;;;5114637;28;20023;-63
2021/04/29 03:54:52;;;;;;;8.40;4.53;;;;;;;;;;5112245;28;20032;-63
2021/04/29 03:57:18;;;;;;;6.22;4.60;;;;;;;;;;5115366;28;20024;-63
2021/04/29 03:59:44;;;;;;;9.15;4.68;;;;;;;;;;5117515;28;20027;-63
2021/04/29 04:02:11;;;;;;;6.40;4.30;;;;;;;;;;5122808;28;20087;-64
2021/04/29 04:04:37;;;;;;;6.93;4.50;;;;;;;;;;5114945;28;20019;-63
2021/04/29 04:07:04;;;;;;;6.75;6.05;;;;;;;;;;5107785;28;20024;-66
2021/04/29 04:09:30;;;;;;;11.00;5.82;;;;;;;;;;5108463;28;20032;-64
2021/04/29 04:11:56;;;;;;;6.55;5.10;;;;;;;;;;5115289;28;20097;-71
2021/04/29 04:14:22;;;;;;;5.40;4.38;;;;;;;;;;5108984;28;20043;-70
2021/04/29 04:16:48;;;;;;;9.25;5.22;;;;;;;;;;5117753;28;20088;-64
2021/04/29 04:19:14;;;;;;;9.43;4.97;;;;;;;;;;5115267;28;20055;-63
2021/04/29 04:21:43;;;;;;;9.38;5.55;;;;;;;;;;5111794;28;20095;-63
2021/04/29 04:24:10;;;;;;;11.60;5.25;;;;;;;;;;5097897;28;20062;-63
2021/04/29 04:26:36;;;;;;;8.70;6.28;;;;;;;;;;5106648;28;20083;-68
2021/04/29 04:29:02;;;;;;;11.57;6.15;;;;;;;;;;5114852;28;20128;-67
2021/04/29 04:31:28;;;;;;;9.65;5.35;;;;;;;;;;5108843;28;20032;-65
2021/04/29 04:33:54;;;;;;;8.60;4.90;;;;;;;;;;5117500;28;20024;-63
2021/04/29 04:36:20;;;;;;;8.73;4.80;;;;;;;;;;5110754;28;20116;-64
2021/04/29 04:38:46;;;;;;;10.02;6.10;;;;;;;;;;5109099;28;20055;-67
2021/04/29 04:41:12;;;;;;;8.80;4.45;;;;;;;;;;5106026;28;20088;-66
2021/04/29 04:43:38;;;;;;;6.45;4.15;;;;;;;;;;5118385;28;20034;-64
2021/04/29 04:46:04;;;;;;;7.50;4.82;;;;;;;;;;5114125;28;20080;-68
2021/04/29 04:48:30;;;;;;;9.20;5.55;;;;;;;;;;5102263;28;20031;-70
2021/04/29 04:50:57;;;;;;;7.47;4.43;;;;;;;;;;5108186;28;20083;-71
2021/04/29 04:53:23;;;;;;;8.68;5.15;;;;;;;;;;5103651;28;20031;-71
2021/04/29 04:55:50;;;;;;;8.95;5.63;;;;;;;;;;5106852;28;20067;-66
2021/04/29 04:58:17;;;;;;;10.48;6.25;;;;;;;;;;5097335;28;20052;-69
2021/04/29 05:00:43;;;;;;;9.23;4.80;;;;;;;;;;5108888;28;20470;-71
2021/04/29 05:03:11;;;;;;;9.55;5.30;;;;;;;;;;5098917;28;20026;-66
2021/04/29 05:05:39;;;;;;;13.90;5.70;;;;;;;;;;5108908;28;20066;-70
2021/04/29 05:08:06;;;;;;;7.25;6.18;;;;;;;;;;5107820;28;20062;-70
2021/04/29 05:10:33;;;;;;;7.47;4.63;;;;;;;;;;5104815;28;20151;-71
2021/04/29 05:13:03;;;;;;;8.10;4.43;;;;;;;;;;5101984;28;20032;-71
2021/04/29 05:15:36;;;;;;;5.78;4.72;;;;;;;;;;5106588;28;20024;-71
2021/04/29 05:18:02;;;;;;;6.38;4.68;;;;;;;;;;5104487;28;20027;-70
2021/04/29 05:20:29;;;;;;;5.85;4.90;;;;;;;;;;5107262;28;20079;-68
2021/04/29 05:22:55;;;;;;;6.10;4.72;;;;;;;;;;5104606;28;20023;-69
2021/04/29 05:25:24;;;;;;;7.38;4.00;;;;;;;;;;5107347;28;20032;-70
2021/04/29 05:27:51;;;;;;;8.32;4.95;;;;;;;;;;5085525;28;20257;-64
2021/04/29 05:30:18;;;;;;;6.53;5.10;;;;;;;;;;5088696;28;20055;-71
2021/04/29 05:32:44;;;;;;;7.25;4.68;;;;;;;;;;5111295;28;20034;-68
2021/04/29 05:35:10;;;;;;;6.93;4.68;;;;;;;;;;5109110;28;20032;-71
2021/04/29 05:37:36;;;;;;;6.28;4.60;;;;;;;;;;5097967;28;20024;-70
2021/04/29 05:40:03;;;;;;;11.45;5.07;;;;;;;;;;5095023;28;20028;-70
2021/04/29 05:42:29;;;;;;;5.93;4.10;;;;;;;;;;5109585;28;20363;-71
2021/04/29 05:44:55;;;;;;;8.43;4.82;;;;;;;;;;5102449;28;20095;-69
2021/04/29 05:47:21;;;;;;;9.13;5.55;;;;;;;;;;5107202;28;20027;-70
2021/04/29 05:49:47;;;;;;;11.23;4.88;;;;;;;;;;5098496;28;20028;-71
2021/04/29 05:52:13;;;;;;;8.10;4.95;;;;;;;;;;5096589;28;20028;-70
2021/04/29 05:54:40;;;;;;;6.00;4.57;;;;;;;;;;5106603;28;20043;-70
2021/04/29 05:57:06;;;;;;;7.93;4.43;;;;;;;;;;5114462;28;20038;-68
2021/04/29 05:59:32;;;;;;;10.57;5.13;;;;;;;;;;5104075;28;20095;-70
2021/04/29 06:01:58;;;;;;;7.95;4.53;;;;;;;;;;5103628;28;20030;-69
2021/04/29 06:04:24;;;;;;;7.30;4.30;;;;;;;;;;5101883;28;21652;-69
2021/04/29 06:06:51;;;;;;;5.38;4.50;;;;;;;;;;5105141;28;20024;-69
2021/04/29 06:09:17;;;;;;;8.60;4.32;;;;;;;;;;5114457;28;20024;-68
2021/04/29 06:11:44;;;;;;;5.95;4.35;;;;;;;;;;5101229;28;20050;-70
2021/04/29 06:14:11;;;;;;;7.13;4.25;;;;;;;;;;5105325;28;20024;-65
2021/04/29 06:16:38;;;;;;;6.68;4.63;;;;;;;;;;5124602;28;20039;-67
2021/04/29 06:19:04;;;;;;;8.07;4.20;;;;;;;;;;5098821;28;20419;-67
2021/04/29 06:21:30;;;;;;;6.80;4.20;;;;;;;;;;5110983;28;20028;-64
2021/04/29 06:23:57;;;;;;;8.93;4.68;;;;;;;;;;5117006;28;20024;-65
2021/04/29 06:26:23;;;;;;;5.50;4.07;;;;;;;;;;5116997;28;20036;-69
2021/04/29 06:28:49;;;;;;;5.22;3.92;;;;;;;;;;5100852;28;20027;-68
2021/04/29 06:31:15;;;;;;;5.50;3.88;;;;;;;;;;5108189;28;20032;-68
2021/04/29 06:33:41;;;;;;;6.03;4.35;;;;;;;;;;5110638;28;20120;-68
2021/04/29 06:36:07;;;;;;;8.93;5.15;;;;;;;;;;5098090;28;20081;-67
2021/04/29 06:38:35;;;;;;;6.28;3.90;;;;;;;;;;5110905;28;20603;-69
2021/04/29 06:41:01;;;;;;;8.65;4.43;;;;;;;;;;5114742;28;20066;-70
2021/04/29 06:43:27;;;;;;;4.88;3.40;;;;;;;;;;5104627;28;20060;-69
2021/04/29 06:45:53;;;;;;;6.55;4.13;;;;;;;;;;5113264;28;20044;-67
2021/04/29 06:48:20;;;;;;;7.00;3.85;;;;;;;;;;5110417;28;20119;-71
2021/04/29 06:50:46;;;;;;;6.70;3.88;;;;;;;;;;5113497;28;20027;-66
2021/04/29 06:53:12;;;;;;;4.25;3.72;;;;;;;;;;5094989;28;20028;-70
2021/04/29 06:55:39;;;;;;;9.50;4.60;;;;;;;;;;5110874;28;20076;-71
2021/04/29 06:58:05;;;;;;;5.45;3.97;;;;;;;;;;5112401;28;20034;-68
2021/04/29 07:00:32;;;;;;;5.38;4.13;;;;;;;;;;5104539;28;20796;-63
2021/04/29 07:02:59;;;;;;;4.10;3.60;;;;;;;;;;5098579;28;20024;-68
2021/04/29 07:05:26;;;;;;;5.22;3.45;;;;;;;;;;5105083;28;20147;-64
2021/04/29 07:07:52;;;;;;;7.60;4.05;;;;;;;;;;5106723;28;20030;-73
2021/04/29 07:10:18;;;;;;;6.03;3.80;;;;;;;;;;5095169;28;20062;-68
2021/04/29 07:12:44;;;;;;;6.80;4.18;;;;;;;;;;5106897;28;20784;-69
2021/04/29 07:15:11;;;;;;;6.65;3.67;;;;;;;;;;5080540;28;20085;-67
2021/04/29 07:17:38;;;;;;;6.05;4.00;;;;;;;;;;5104067;28;20035;-67
2021/04/29 07:20:05;;;;;;;8.05;4.00;;;;;;;;;;5083607;28;20024;-68
2021/04/29 07:22:34;;;;;;;6.47;4.07;;;;;;;;;;5095299;28;20024;-69
2021/04/29 07:25:01;;;;;;;9.80;4.57;;;;;;;;;;5094692;28;20031;-70
2021/04/29 07:27:27;;;;;;;7.68;4.10;;;;;;;;;;5097102;28;20032;-69
2021/04/29 07:29:53;;;;;;;10.82;4.53;;;;;;;;;;5101017;28;20123;-68
2021/04/29 07:32:19;;;;;;;10.30;4.75;;;;;;;;;;5099596;28;20080;-69
2021/04/29 07:34:45;;;;;;;6.00;3.70;;;;;;;;;;5075105;28;20039;-68
2021/04/29 07:37:11;;;;;;;8.75;3.90;;;;;;;;;;5089696;28;20028;-66
2021/04/29 07:39:37;;;;;;;6.75;3.55;;;;;;;;;;5101392;28;20080;-69
2021/04/29 07:42:03;;;;;;;8.02;3.35;;;;;;;;;;5098082;28;20066;-67
2021/04/29 07:44:30;;;;;;;7.10;3.58;;;;;;;;;;5095244;28;20035;-69
2021/04/29 07:46:56;;;;;;;9.02;3.88;;;;;;;;;;5090372;28;20036;-69
2021/04/29 07:49:22;;;;;;;5.78;3.40;;;;;;;;;;5097635;28;20100;-69
2021/04/29 07:51:48;;;;;;;4.95;3.42;;;;;;;;;;5099612;28;20099;-66
2021/04/29 07:54:15;;;;;;;7.70;4.00;;;;;;;;;;5102246;28;20039;-69
2021/04/29 07:56:42;;;;;;;4.47;3.80;;;;;;;;;;5094360;28;20036;-71
2021/04/29 07:59:08;;;;;;;6.90;4.45;;;;;;;;;;5082956;28;20024;-66
2021/04/29 08:01:34;;;;;;;7.15;3.80;;;;;;;;;;5093975;28;20035;-69
2021/04/29 08:04:01;;;;;;;5.40;3.28;;;;;;;;;;5099674;28;20027;-64
2021/04/29 08:06:31;;;;;;;6.65;3.88;;;;;;;;;;5099432;28;20028;-64
2021/04/29 08:08:57;;;;;;;7.68;4.30;;;;;;;;;;5100465;28;20058;-67
2021/04/29 08:11:23;;;;;;;7.53;3.92;;;;;;;;;;5101879;28;20040;-70
2021/04/29 08:13:50;;;;;;;5.10;3.97;;;;;;;;;;5104559;28;20044;-70
2021/04/29 08:16:16;;;;;;;9.32;3.63;;;;;;;;;;5100378;28;20040;-64
2021/04/29 08:18:43;;;;;;;5.97;3.90;;;;;;;;;;5096625;28;20023;-68
2021/04/29 08:21:10;;;;;;;8.85;4.05;;;;;;;;;;5082291;28;20263;-66
2021/04/29 08:23:36;;;;;;;7.65;3.90;;;;;;;;;;5093531;28;20056;-68
2021/04/29 08:26:02;;;;;;;10.10;4.60;;;;;;;;;;5079000;28;20395;-68
2021/04/29 08:28:28;;;;;;;6.43;3.78;;;;;;;;;;5091110;28;20020;-70
2021/04/29 08:30:55;;;;;;;8.32;4.00;;;;;;;;;;5099247;28;20027;-69
2021/04/29 08:33:21;;;;;;;6.50;3.60;;;;;;;;;;5092248;28;20077;-68
2021/04/29 08:35:47;;;;;;;5.72;3.72;;;;;;;;;;5098919;28;20028;-69
2021/04/29 08:38:14;;;;;;;7.95;4.25;;;;;;;;;;5097162;28;20457;-66
2021/04/29 08:40:40;;;;;;;7.97;3.83;;;;;;;;;;5095948;28;20035;-68
2021/04/29 08:43:06;;;;;;;8.32;4.03;;;;;;;;;;5097928;28;20158;-69
2021/04/29 08:45:36;;;;;;;7.43;3.72;;;;;;;;;;5096414;28;20097;-69
2021/04/29 08:48:02;;;;;;;7.65;4.18;;;;;;;;;;5092239;28;20039;-68
2021/04/29 08:50:31;;;;;;;7.82;3.20;;;;;;;;;;5102240;28;20063;-68
2021/04/29 08:52:57;;;;;;;5.65;3.83;;;;;;;;;;5098936;28;20020;-68
2021/04/29 08:55:24;;;;;;;4.50;3.47;;;;;;;;;;5095458;28;20043;-68
2021/04/29 08:57:50;;;;;;;6.43;3.85;;;;;;;;;;5092521;28;20663;-69
2021/04/29 09:00:17;;;;;;;14.15;4.80;;;;;;;;;;5092522;28;20028;-66
2021/04/29 09:02:44;;;;;;;5.47;3.40;;;;;;;;;;5099265;28;20038;-69
2021/04/29 09:05:13;;;;;;;4.75;3.17;;;;;;;;;;5104271;28;20019;-68
2021/04/29 09:07:40;;;;;;;6.13;3.95;;;;;;;;;;5100095;28;20399;-68
2021/04/29 09:10:08;;;;;;;11.68;3.28;;;;;;;;;;5095136;28;20039;-69
2021/04/29 09:12:44;;;;;;;6.50;3.17;;;;;;;;;;5097286;28;20525;-67
2021/04/29 09:15:30;;;;;;;5.93;3.60;;;;;;;;;;5091159;28;20035;-66
2021/04/29 09:18:05;;;;;;;4.35;3.42;;;;;;;;;;5091077;28;20483;-69
2021/04/29 09:20:31;;;;;;;9.15;4.07;;;;;;;;;;5097580;28;20726;-68
2021/04/29 09:22:59;;;;;;;8.02;2.88;;;;;;;;;;5089569;28;20024;-68
2021/04/29 09:25:25;;;;;;;4.65;3.53;;;;;;;;;;5099274;28;20028;-68
2021/04/29 09:27:54;;;;;;;4.68;3.42;;;;;;;;;;5096507;28;20035;-68
2021/04/29 09:30:24;;;;;;;5.93;2.97;;;;;;;;;;5095322;28;20031;-69
2021/04/29 09:32:51;;;;;;;4.38;3.00;;;;;;;;;;5103352;28;20092;-69
2021/04/29 09:35:18;;;;;;;5.43;3.25;;;;;;;;;;5099333;28;20048;-67
2021/04/29 09:37:45;;;;;;;4.60;3.08;;;;;;;;;;5098404;28;20032;-69
2021/04/29 09:40:13;;;;;;;4.70;3.15;;;;;;;;;;5099791;28;20038;-70
2021/04/29 09:42:40;;;;;;;4.40;2.85;;;;;;;;;;5104651;28;20143;-65
2021/04/29 09:45:17;;;;;;;3.95;2.90;;;;;;;;;;5099529;28;20024;-66
2021/04/29 09:47:53;;;;;;;4.03;2.95;;;;;;;;;;5098838;28;20125;-67
2021/04/29 09:50:23;;;;;;;3.70;3.05;;;;;;;;;;5096978;28;20603;-68
2021/04/29 09:52:57;;;;;;;8.05;3.63;;;;;;;;;;5099314;28;20023;-66
2021/04/29 09:55:26;;;;;;;4.20;2.90;;;;;;;;;;5099621;28;20708;-70
2021/04/29 09:58:00;;;;;;;5.47;3.25;;;;;;;;;;5096323;28;20036;-66
2021/04/29 10:00:26;;;;;;;6.13;3.38;;;;;;;;;;5095580;28;20024;-70
2021/04/29 10:02:52;;;;;;;6.07;4.00;;;;;;;;;;5094242;28;20048;-68
2021/04/29 10:05:18;;;;;;;6.00;3.33;;;;;;;;;;5077226;28;20032;-68
2021/04/29 10:07:45;;;;;;;3.80;2.20;;;;;;;;;;5096516;28;20024;-67
2021/04/29 10:10:12;;;;;;;4.38;2.33;;;;;;;;;;5100650;28;20024;-67
2021/04/29 10:12:39;;;;;;;5.57;2.50;;;;;;;;;;5083400;28;20048;-66
2021/04/29 10:15:07;;;;;;;4.10;2.10;;;;;;;;;;5104935;28;20028;-68
2021/04/29 10:17:33;;;;;;;2.90;2.13;;;;;;;;;;5073123;28;20105;-69
2021/04/29 10:20:00;;;;;;;5.55;2.60;;;;;;;;;;5075206;28;20028;-69
2021/04/29 10:22:27;;;;;;;4.40;2.28;;;;;;;;;;5095155;28;20032;-69
2021/04/29 10:24:54;;;;;;;4.70;2.33;;;;;;;;;;5106689;28;20084;-70
2021/04/29 10:27:24;;;;;;;2.00;1.80;;;;;;;;;;5106485;28;20035;-66
2021/04/29 10:30:02;;;;;;;2.00;1.80;;;;;;;;;;5094461;28;20111;-68
2021/04/29 10:32:33;;;;;;;3.30;1.80;;;;;;;;;;5093780;28;20028;-70
2021/04/29 10:34:59;;;;;;;3.90;2.90;;;;;;;;;;5094048;28;20111;-66
2021/04/29 10:37:27;;;;;;;2.53;1.77;;;;;;;;;;5100221;28;20036;-68
2021/04/29 10:40:02;;;;;;;3.13;2.55;;;;;;;;;;5100740;28;20541;-68
2021/04/29 10:42:29;;;;;;;2.78;2.05;;;;;;;;;;5107667;28;20120;-68
2021/04/29 10:44:59;;;;;;;2.60;1.83;;;;;;;;;;5106028;28;20020;-69
2021/04/29 10:47:26;;;;;;;1.83;1.70;;;;;;;;;;5091795;28;20024;-69
2021/04/29 10:49:53;;;;;;;2.67;1.80;;;;;;;;;;5095128;28;20032;-70
2021/04/29 10:52:19;;;;;;;2.55;2.35;;;;;;;;;;5097040;28;20490;-70
2021/04/29 10:54:49;;;;;;;1.90;1.80;;;;;;;;;;5096325;28;20430;-72
2021/04/29 10:57:16;;;;;;;5.53;2.22;;;;;;;;;;5095457;28;20032;-71
2021/04/29 10:59:43;;;;;;;3.17;1.98;;;;;;;;;;5098551;28;20421;-69
2021/04/29 11:02:30;;;;;;;2.90;1.75;;;;;;;;;;5093359;28;20055;-69
2021/04/29 11:04:57;;;;;;;1.80;1.70;;;;;;;;;;5097499;28;20119;-68
2021/04/29 11:07:24;;;;;;;2.05;1.85;;;;;;;;;;5095871;28;20036;-70
2021/04/29 11:10:06;;;;;;;2.35;1.90;;;;;;;;;;5097000;28;20028;-70
2021/04/29 11:12:49;;;;;;;2.00;1.80;;;;;;;;;;5097886;28;20071;-70
2021/04/29 11:15:19;;;;;;;2.00;1.70;;;;;;;;;;5100625;28;20051;-70
2021/04/29 11:17:45;;;;;;;1.98;1.80;;;;;;;;;;5101703;28;20039;-70
2021/04/29 11:20:11;;;;;;;2.00;1.80;;;;;;;;;;5102131;28;20024;-68
2021/04/29 11:22:38;;;;;;;2.33;1.70;;;;;;;;;;5098910;28;20547;-73
2021/04/29 11:25:09;;;;;;;1.88;1.77;;;;;;;;;;5093009;28;20020;-71
2021/04/29 11:27:38;;;;;;;2.58;1.75;;;;;;;;;;5090644;28;20027;-69
2021/04/29 11:30:06;;;;;;;2.90;2.50;;;;;;;;;;5103708;28;20028;-69
2021/04/29 11:32:33;;;;;;;3.88;2.00;;;;;;;;;;5102230;28;20028;-70
2021/04/29 11:35:04;;;;;;;2.85;2.05;;;;;;;;;;5102200;28;21505;-69
2021/04/29 11:37:40;;;;;;;2.95;2.35;;;;;;;;;;5096328;28;20040;-70
2021/04/29 11:40:07;;;;;;;4.25;2.70;;;;;;;;;;5098230;28;20494;-69
2021/04/29 11:42:34;;;;;;;2.88;2.40;;;;;;;;;;5093323;28;20541;-71
2021/04/29 11:45:06;;;;;;;3.70;2.33;;;;;;;;;;5094044;28;20039;-69
2021/04/29 11:47:32;;;;;;;2.88;2.58;;;;;;;;;;5093333;28;20028;-70
2021/04/29 11:49:59;;;;;;;3.63;2.67;;;;;;;;;;5099171;28;20042;-68
2021/04/29 11:52:26;;;;;;;6.03;3.70;;;;;;;;;;5100557;28;20068;-69
2021/04/29 11:54:52;;;;;;;7.35;5.05;;;;;;;;;;5092858;28;20028;-67
2021/04/29 11:57:18;;;;;;;3.25;2.65;;;;;;;;;;5096307;28;20028;-70
2021/04/29 11:59:49;;;;;;;3.60;3.30;;;;;;;;;;5103478;28;20020;-68
2021/04/29 12:02:16;;;;;;;3.10;2.67;;;;;;;;;;5098620;28;20028;-71
2021/04/29 12:04:44;;;;;;;2.53;1.75;;;;;;;;;;5094718;28;20050;-69
2021/04/29 12:07:10;;;;;;;3.58;1.98;;;;;;;;;;5101616;28;20428;-68
2021/04/29 12:09:36;;;;;;;3.13;1.90;;;;;;;;;;5098168;28;20028;-68
2021/04/29 12:12:16;;;;;;;4.13;1.60;;;;;;;;;;5099302;28;20040;-68
2021/04/29 12:14:53;;;;;;;2.65;1.90;;;;;;;;;;5107142;28;20510;-69
2021/04/29 12:17:19;;;;;;;2.53;2.10;;;;;;;;;;5107867;28;20075;-69
2021/04/29 12:19:52;;;;;;;3.00;1.90;;;;;;;;;;5107533;28;20473;-69
2021/04/29 12:22:27;;;;;;;2.15;1.95;;;;;;;;;;5108740;28;20539;-69
2021/04/29 12:24:53;;;;;;;2.65;1.90;;;;;;;;;;5106749;28;20718;-69
2021/04/29 12:27:21;;;;;;;2.88;1.80;;;;;;;;;;5100477;28;20173;-70
2021/04/29 12:30:00;;;;;;;3.97;2.00;;;;;;;;;;5102747;28;20028;-69
2021/04/29 12:32:43;;;;;;;2.60;1.80;;;;;;;;;;5101456;28;20059;-69
2021/04/29 12:35:10;;;;;;;2.90;2.20;;;;;;;;;;5091073;28;20115;-67
2021/04/29 12:37:37;;;;;;;3.92;2.33;;;;;;;;;;5104023;28;20485;-71
2021/04/29 12:40:03;;;;;;;2.80;2.55;;;;;;;;;;5104983;28;20027;-73
2021/04/29 12:42:29;;;;;;;3.20;2.08;;;;;;;;;;5104160;28;20234;-70
2021/04/29 12:45:03;;;;;;;2.17;1.98;;;;;;;;;;5093263;28;20024;-66
2021/04/29 12:47:31;;;;;;;3.17;2.20;;;;;;;;;;5096377;28;20032;-69
2021/04/29 12:50:06;;;;;;;3.13;2.10;;;;;;;;;;5096842;28;20478;-70
2021/04/29 12:52:32;;;;;;;;;;;;;;;;;;5100580;28;20081;-71
2021/04/29 12:54:59;;;;;;;2.42;1.83;;;;;;;;;;5103893;28;19943;-70
2021/04/29 12:57:26;;;;;;;2.40;1.90;;;;;;;;;;5101153;28;20036;-71
2021/04/29 12:59:53;;;;;;;2.08;1.83;;;;;;;;;;5106531;28;20432;-70
2021/04/29 13:02:20;;;;;;;3.80;2.00;;;;;;;;;;5101815;28;20037;-71
2021/04/29 13:04:58;;;;;;;2.40;2.10;;;;;;;;;;5104105;28;20390;-68
2021/04/29 13:07:24;;;;;;;3.53;1.80;;;;;;;;;;5082733;28;20081;-69
2021/04/29 13:09:50;;;;;;;2.15;1.90;;;;;;;;;;5098839;28;20513;-68
2021/04/29 13:12:18;;;;;;;2.50;1.85;;;;;;;;;;5097239;28;20414;-68
2021/04/29 13:14:45;;;;;;;6.28;4.40;;;;;;;;;;5093702;28;20028;-67
2021/04/29 13:17:21;;;;;;;2.95;2.65;;;;;;;;;;5100334;28;20028;-66
2021/04/29 13:19:57;;;;;;;6.72;4.32;;;;;;;;;;5100211;28;20035;-66
2021/04/29 13:22:23;;;;;;;5.90;3.83;;;;;;;;;;5104965;28;20038;-68
2021/04/29 13:24:49;;;;;;;3.53;2.05;;;;;;;;;;5100842;28;20023;-70
2021/04/29 13:27:15;;;;;;;2.60;2.00;;;;;;;;;;5098391;28;20031;-70
2021/04/29 13:29:42;;;;;;;8.73;5.25;;;;;;;;;;5093444;28;20031;-67
2021/04/29 13:32:08;;;;;;;5.82;2.53;;;;;;;;;;5106592;28;20024;-67
2021/04/29 13:34:34;;;;;;;3.33;2.15;;;;;;;;;;5099918;28;20027;-69
2021/04/29 13:37:02;;;;;;;3.67;2.10;;;;;;;;;;5101921;28;20509;-69
2021/04/29 13:39:28;;;;;;;9.05;2.30;;;;;;;;;;5101380;28;20028;-69
2021/04/29 13:41:54;;;;;;;2.40;2.10;;;;;;;;;;5098496;28;20032;-65
2021/04/29 13:44:20;;;;;;;2.50;2.30;;;;;;;;;;5107470;28;20067;-68
2021/04/29 13:46:47;;;;;;;3.08;2.20;;;;;;;;;;5108880;28;20448;-68
2021/04/29 13:49:13;;;;;;;2.97;2.13;;;;;;;;;;5103378;28;20031;-70
2021/04/29 13:51:41;;;;;;;2.90;2.25;;;;;;;;;;5098702;28;20028;-68
2021/04/29 13:54:07;;;;;;;3.40;2.30;;;;;;;;;;5101818;28;20040;-66
2021/04/29 13:56:33;;;;;;;2.83;2.20;;;;;;;;;;5097424;28;20473;-69
2021/04/29 13:59:00;;;;;;;2.90;2.30;;;;;;;;;;5103048;28;20028;-69
2021/04/29 14:01:26;;;;;;;2.05;1.85;;;;;;;;;;5106725;28;20072;-67
2021/04/29 14:03:52;;;;;;;3.42;2.33;;;;;;;;;;5107095;28;20028;-65
2021/04/29 14:06:18;;;;;;;5.22;2.80;;;;;;;;;;5098450;28;20059;-68
2021/04/29 14:08:45;;;;;;;7.53;3.00;;;;;;;;;;5098239;28;20734;-68
2021/04/29 14:11:11;;;;;;;3.90;2.30;;;;;;;;;;5103839;28;20035;-68
2021/04/29 14:13:38;;;;;;;3.83;2.30;;;;;;;;;;5094287;28;20151;-68
2021/04/29 14:16:05;;;;;;;3.28;2.25;;;;;;;;;;5077678;28;20089;-68
2021/04/29 14:18:31;;;;;;;3.10;2.33;;;;;;;;;;5097504;28;20513;-66
2021/04/29 14:20:59;;;;;;;2.50;2.30;;;;;;;;;;5102980;28;20553;-66
2021/04/29 14:23:25;;;;;;;4.07;2.63;;;;;;;;;;5099303;28;20507;-68
2021/04/29 14:25:52;;;;;;;7.18;2.60;;;;;;;;;;5107086;28;20032;-68
2021/04/29 14:28:18;;;;;;;6.43;2.60;;;;;;;;;;5080907;28;20032;-67
2021/04/29 14:30:44;;;;;;;2.72;2.38;;;;;;;;;;5097039;28;20035;-68
2021/04/29 14:33:10;;;;;;;4.55;2.50;;;;;;;;;;5096438;28;20494;-70
2021/04/29 14:35:36;;;;;;;8.52;2.50;;;;;;;;;;5096532;28;20164;-66
2021/04/29 14:38:02;;;;;;;3.38;2.40;;;;;;;;;;5098658;28;20028;-70
2021/04/29 14:40:28;;;;;;;5.95;2.63;;;;;;;;;;5073030;28;20387;-69
2021/04/29 14:42:54;;;;;;;3.05;2.67;;;;;;;;;;5090941;28;20031;-68
2021/04/29 14:45:22;;;;;;;3.95;2.28;;;;;;;;;;5097904;28;20823;-70